Time;durP1;ratioP1;P1;durP2;ratioP2;P2;SDS_P1;SDS_P2;PMS_P1;PMS_P2;Temp;Humidity;BMP_temperature;BMP_pressure;BME280_temperature;BME280_humidity;BME280_pressure;Samples;Min_cycle;Max_cycle;Signal;HPM_P1;HPM_P2
2024/01/14 00:01:47;;;;;;;14.13;2.10;;;;;;;;;;5073331;28;20044;-72
2024/01/14 00:04:13;;;;;;;17.73;2.00;;;;;;;;;;5072826;28;20041;-72
2024/01/14 00:06:39;;;;;;;16.00;2.80;;;;;;;;;;5072972;28;20435;-71
2024/01/14 00:09:05;;;;;;;16.05;2.58;;;;;;;;;;5071757;28;20409;-71
2024/01/14 00:11:31;;;;;;;17.90;2.22;;;;;;;;;;5071718;28;20044;-71
2024/01/14 00:13:57;;;;;;;13.15;2.35;;;;;;;;;;5071662;28;20113;-71
2024/01/14 00:16:23;;;;;;;14.77;2.63;;;;;;;;;;5071942;28;20041;-71
2024/01/14 00:18:49;;;;;;;25.13;2.53;;;;;;;;;;5071650;28;20040;-71
2024/01/14 00:21:15;;;;;;;13.68;2.30;;;;;;;;;;5073156;28;20036;-71
2024/01/14 00:23:41;;;;;;;16.17;3.28;;;;;;;;;;5071536;28;20413;-71
2024/01/14 00:26:07;;;;;;;16.80;2.30;;;;;;;;;;5071520;28;20036;-71
2024/01/14 00:28:33;;;;;;;16.10;2.03;;;;;;;;;;5071584;28;20448;-71
2024/01/14 00:30:59;;;;;;;14.65;2.35;;;;;;;;;;5072542;28;20043;-71
2024/01/14 00:33:25;;;;;;;20.15;2.60;;;;;;;;;;5075489;28;20520;-71
2024/01/14 00:35:51;;;;;;;14.35;1.80;;;;;;;;;;5075484;28;20049;-71
2024/01/14 00:38:17;;;;;;;14.55;2.03;;;;;;;;;;5075441;28;20133;-71
2024/01/14 00:40:44;;;;;;;13.70;2.13;;;;;;;;;;5075418;28;20045;-71
2024/01/14 00:43:10;;;;;;;12.02;2.42;;;;;;;;;;5076865;28;20077;-71
2024/01/14 00:45:35;;;;;;;15.10;2.45;;;;;;;;;;5076646;28;20040;-71
2024/01/14 00:48:01;;;;;;;15.13;1.77;;;;;;;;;;5076724;28;20044;-71
2024/01/14 00:50:29;;;;;;;16.30;2.22;;;;;;;;;;5076707;28;20036;-72
2024/01/14 00:52:56;;;;;;;11.98;1.88;;;;;;;;;;5075471;28;20481;-71
2024/01/14 00:55:22;;;;;;;14.82;2.17;;;;;;;;;;5076188;28;20520;-71
2024/01/14 00:57:48;;;;;;;13.82;2.25;;;;;;;;;;5058378;28;20044;-71
2024/01/14 01:00:14;;;;;;;9.63;1.63;;;;;;;;;;5076496;28;20040;-71
2024/01/14 01:02:40;;;;;;;14.75;1.85;;;;;;;;;;5075225;28;20048;-71
2024/01/14 01:05:06;;;;;;;18.60;2.60;;;;;;;;;;5074722;28;20185;-71
2024/01/14 01:07:32;;;;;;;12.57;1.80;;;;;;;;;;5074840;28;20490;-71
2024/01/14 01:09:58;;;;;;;13.02;1.80;;;;;;;;;;5074818;28;20045;-71
2024/01/14 01:12:24;;;;;;;16.98;1.75;;;;;;;;;;5074783;28;20040;-71
2024/01/14 01:14:50;;;;;;;14.32;2.33;;;;;;;;;;5074923;28;20046;-71
2024/01/14 01:17:16;;;;;;;10.48;1.75;;;;;;;;;;5074683;28;20501;-71
2024/01/14 01:19:42;;;;;;;14.80;1.83;;;;;;;;;;5075726;28;20048;-72
2024/01/14 01:22:08;;;;;;;16.60;1.83;;;;;;;;;;5076119;28;20513;-72
2024/01/14 01:24:37;;;;;;;17.00;1.75;;;;;;;;;;5075954;28;20045;-71
2024/01/14 01:27:03;;;;;;;13.07;1.67;;;;;;;;;;5076013;28;20036;-72
2024/01/14 01:29:30;;;;;;;11.15;1.80;;;;;;;;;;5075302;28;20056;-72
2024/01/14 01:31:56;;;;;;;12.88;2.70;;;;;;;;;;5075969;28;20131;-72
2024/01/14 01:34:22;;;;;;;12.77;1.75;;;;;;;;;;5075879;28;20041;-72
2024/01/14 01:36:48;;;;;;;11.02;1.40;;;;;;;;;;5074576;28;20067;-71
2024/01/14 01:39:14;;;;;;;9.63;1.67;;;;;;;;;;5074321;28;20044;-71
2024/01/14 01:41:40;;;;;;;11.23;1.80;;;;;;;;;;5075207;28;20047;-71
2024/01/14 01:44:06;;;;;;;11.90;1.45;;;;;;;;;;5074106;28;20041;-71
2024/01/14 01:46:33;;;;;;;16.58;1.90;;;;;;;;;;5074197;28;20079;-71
2024/01/14 01:49:00;;;;;;;9.02;1.70;;;;;;;;;;5075673;28;20033;-71
2024/01/14 01:51:26;;;;;;;12.40;1.55;;;;;;;;;;5075633;28;20047;-71
2024/01/14 01:53:52;;;;;;;12.90;1.52;;;;;;;;;;5075208;28;20515;-71
2024/01/14 01:56:19;;;;;;;10.65;1.27;;;;;;;;;;5073991;28;20032;-71
2024/01/14 01:58:45;;;;;;;10.32;1.50;;;;;;;;;;5073982;28;20059;-71
2024/01/14 02:01:11;;;;;;;10.50;1.52;;;;;;;;;;5075942;28;20611;-71
2024/01/14 02:03:37;;;;;;;12.05;1.60;;;;;;;;;;5075081;28;20150;-71
2024/01/14 02:06:06;;;;;;;13.73;1.50;;;;;;;;;;5075293;28;20040;-71
2024/01/14 02:08:32;;;;;;;10.77;1.77;;;;;;;;;;5073726;28;20405;-71
2024/01/14 02:10:58;;;;;;;12.82;1.65;;;;;;;;;;5057033;28;20036;-71
2024/01/14 02:13:24;;;;;;;16.42;2.53;;;;;;;;;;5075108;28;20040;-71
2024/01/14 02:15:50;;;;;;;13.82;1.50;;;;;;;;;;5075151;28;20041;-71
2024/01/14 02:18:16;;;;;;;12.27;1.73;;;;;;;;;;5075051;28;20040;-71
2024/01/14 02:20:42;;;;;;;17.25;1.75;;;;;;;;;;5073747;28;20047;-71
2024/01/14 02:23:10;;;;;;;15.40;2.00;;;;;;;;;;5074677;28;20409;-71
2024/01/14 02:25:36;;;;;;;18.38;3.15;;;;;;;;;;5073317;28;20036;-71
2024/01/14 02:28:02;;;;;;;12.52;1.90;;;;;;;;;;5073304;28;20033;-71
2024/01/14 02:30:29;;;;;;;16.10;2.25;;;;;;;;;;5074505;28;20409;-72
2024/01/14 02:32:55;;;;;;;14.23;2.60;;;;;;;;;;5074474;28;20494;-72
2024/01/14 02:35:21;;;;;;;12.98;1.80;;;;;;;;;;5073140;28;20048;-72
2024/01/14 02:37:47;;;;;;;15.07;2.00;;;;;;;;;;5074680;28;20040;-72
2024/01/14 02:40:14;;;;;;;15.13;2.38;;;;;;;;;;5074618;28;20044;-71
2024/01/14 02:42:40;;;;;;;13.35;1.63;;;;;;;;;;5073341;28;20059;-71
2024/01/14 02:45:08;;;;;;;11.93;1.80;;;;;;;;;;5072889;28;20048;-71
2024/01/14 02:47:34;;;;;;;12.75;1.75;;;;;;;;;;5072985;28;20071;-71
2024/01/14 02:50:00;;;;;;;12.68;1.67;;;;;;;;;;5074427;28;20037;-71
2024/01/14 02:52:26;;;;;;;12.20;1.58;;;;;;;;;;5075258;28;20047;-71
2024/01/14 02:54:52;;;;;;;15.00;2.13;;;;;;;;;;5071886;28;20567;-71
2024/01/14 02:57:18;;;;;;;15.38;2.33;;;;;;;;;;5073976;28;20040;-71
2024/01/14 02:59:44;;;;;;;12.63;2.00;;;;;;;;;;5072728;28;20044;-71
2024/01/14 03:02:10;;;;;;;14.00;2.30;;;;;;;;;;5072688;28;20101;-71
2024/01/14 03:04:36;;;;;;;20.48;2.47;;;;;;;;;;5073660;28;20072;-71
2024/01/14 03:07:03;;;;;;;17.40;2.20;;;;;;;;;;5072569;28;20048;-71
2024/01/14 03:09:29;;;;;;;15.90;2.42;;;;;;;;;;5074023;28;20037;-71
2024/01/14 03:11:55;;;;;;;18.50;2.30;;;;;;;;;;5072474;28;20043;-71
2024/01/14 03:14:21;;;;;;;13.35;1.80;;;;;;;;;;5072293;28;20040;-71
2024/01/14 03:16:47;;;;;;;19.35;2.67;;;;;;;;;;5073922;28;20040;-71
2024/01/14 03:19:13;;;;;;;19.08;2.22;;;;;;;;;;5073898;28;20032;-71
2024/01/14 03:21:39;;;;;;;17.67;2.42;;;;;;;;;;5072307;28;20555;-71
2024/01/14 03:24:05;;;;;;;18.27;2.40;;;;;;;;;;5072154;28;20048;-71
2024/01/14 03:26:31;;;;;;;17.33;2.20;;;;;;;;;;5072277;28;20044;-71
2024/01/14 03:28:57;;;;;;;21.13;2.40;;;;;;;;;;5072242;28;20044;-71
2024/01/14 03:31:23;;;;;;;15.20;2.58;;;;;;;;;;5055837;28;20040;-71
2024/01/14 03:33:49;;;;;;;19.77;2.33;;;;;;;;;;5073638;28;20062;-71
2024/01/14 03:36:15;;;;;;;13.98;2.33;;;;;;;;;;5072140;28;20127;-71
2024/01/14 03:38:41;;;;;;;17.92;2.90;;;;;;;;;;5072374;28;20063;-71
2024/01/14 03:41:07;;;;;;;21.70;2.80;;;;;;;;;;5073612;28;20093;-71
2024/01/14 03:43:33;;;;;;;20.83;2.28;;;;;;;;;;5071995;28;20404;-72
2024/01/14 03:45:59;;;;;;;17.10;2.50;;;;;;;;;;5071931;28;20166;-71
2024/01/14 03:48:25;;;;;;;14.73;2.10;;;;;;;;;;5072013;28;20040;-71
2024/01/14 03:50:51;;;;;;;15.23;1.98;;;;;;;;;;5071964;28;20045;-71
2024/01/14 03:53:17;;;;;;;12.48;1.90;;;;;;;;;;5071926;28;20044;-71
2024/01/14 03:55:46;;;;;;;14.05;2.22;;;;;;;;;;5071817;28;20059;-71
2024/01/14 03:58:13;;;;;;;17.33;1.95;;;;;;;;;;5071889;28;20171;-71
2024/01/14 04:00:39;;;;;;;18.63;3.05;;;;;;;;;;5071840;28;20047;-71
2024/01/14 04:03:05;;;;;;;18.00;2.60;;;;;;;;;;5071721;28;20040;-71
2024/01/14 04:05:31;;;;;;;20.48;2.65;;;;;;;;;;5071494;28;20102;-71
2024/01/14 04:07:57;;;;;;;18.55;2.40;;;;;;;;;;5071741;28;20033;-71
2024/01/14 04:10:23;;;;;;;11.77;2.35;;;;;;;;;;5071758;28;20040;-71
2024/01/14 04:12:49;;;;;;;15.45;2.55;;;;;;;;;;5071726;28;20067;-71
2024/01/14 04:15:15;;;;;;;18.55;1.90;;;;;;;;;;5071901;28;20101;-71
2024/01/14 04:17:41;;;;;;;16.10;2.35;;;;;;;;;;5071710;28;20513;-71
2024/01/14 04:20:08;;;;;;;14.80;2.40;;;;;;;;;;5073181;28;20075;-71
2024/01/14 04:22:34;;;;;;;13.85;2.45;;;;;;;;;;5071658;28;20166;-71
2024/01/14 04:24:59;;;;;;;16.35;2.03;;;;;;;;;;5072051;28;20044;-71
2024/01/14 04:27:25;;;;;;;21.83;3.38;;;;;;;;;;5073176;28;20044;-71
2024/01/14 04:29:51;;;;;;;17.70;2.50;;;;;;;;;;5071576;28;20476;-72
2024/01/14 04:32:17;;;;;;;13.80;2.00;;;;;;;;;;5073055;28;20032;-72
2024/01/14 04:34:43;;;;;;;15.38;2.00;;;;;;;;;;5071426;28;20416;-71
2024/01/14 04:37:09;;;;;;;21.02;2.17;;;;;;;;;;5071757;28;20063;-71
2024/01/14 04:39:35;;;;;;;15.15;2.90;;;;;;;;;;5054805;28;20486;-71
2024/01/14 04:42:01;;;;;;;19.65;3.47;;;;;;;;;;5071706;28;20059;-71
2024/01/14 04:44:27;;;;;;;18.98;2.95;;;;;;;;;;5071507;28;20041;-71
2024/01/14 04:46:54;;;;;;;16.48;2.15;;;;;;;;;;5072894;28;20512;-71
2024/01/14 04:49:20;;;;;;;17.30;2.38;;;;;;;;;;5071373;28;20060;-71
2024/01/14 04:51:46;;;;;;;19.30;2.40;;;;;;;;;;5071390;28;20036;-71
2024/01/14 04:54:12;;;;;;;18.40;2.85;;;;;;;;;;5071273;28;20037;-71
2024/01/14 04:56:39;;;;;;;19.23;2.22;;;;;;;;;;5071253;28;20072;-71
2024/01/14 04:59:05;;;;;;;17.63;2.30;;;;;;;;;;5071286;28;20094;-71
2024/01/14 05:01:31;;;;;;;13.48;2.55;;;;;;;;;;5072749;28;20051;-71
2024/01/14 05:03:57;;;;;;;19.95;2.90;;;;;;;;;;5071301;28;20044;-71
2024/01/14 05:06:23;;;;;;;18.52;2.40;;;;;;;;;;5071458;28;20090;-71
2024/01/14 05:08:49;;;;;;;20.77;2.03;;;;;;;;;;5071206;28;20505;-71
2024/01/14 05:11:15;;;;;;;16.02;2.38;;;;;;;;;;5072371;28;20082;-71
2024/01/14 05:13:41;;;;;;;16.85;2.80;;;;;;;;;;5071073;28;20048;-71
2024/01/14 05:16:07;;;;;;;18.05;2.00;;;;;;;;;;5071142;28;20091;-71
2024/01/14 05:18:33;;;;;;;18.20;2.05;;;;;;;;;;5074073;28;20070;-71
2024/01/14 05:20:59;;;;;;;19.83;2.80;;;;;;;;;;5076208;28;20048;-71
2024/01/14 05:23:25;;;;;;;13.68;1.90;;;;;;;;;;5074556;28;20080;-71
2024/01/14 05:25:51;;;;;;;12.73;1.70;;;;;;;;;;5074601;28;20090;-71
2024/01/14 05:28:17;;;;;;;13.75;2.28;;;;;;;;;;5075780;28;20071;-71
2024/01/14 05:30:43;;;;;;;14.50;1.52;;;;;;;;;;5074535;28;20040;-71
2024/01/14 05:33:09;;;;;;;14.25;1.58;;;;;;;;;;5074474;28;20044;-71
2024/01/14 05:35:35;;;;;;;14.07;1.63;;;;;;;;;;5075867;28;20102;-71
2024/01/14 05:38:01;;;;;;;16.02;1.85;;;;;;;;;;5075906;28;20040;-71
2024/01/14 05:40:27;;;;;;;14.50;1.65;;;;;;;;;;5075870;28;20525;-71
2024/01/14 05:42:53;;;;;;;13.75;2.75;;;;;;;;;;5074539;28;20056;-71
2024/01/14 05:45:19;;;;;;;17.52;2.20;;;;;;;;;;5074107;28;20075;-71
2024/01/14 05:47:45;;;;;;;11.75;1.58;;;;;;;;;;5074487;28;20080;-71
2024/01/14 05:50:11;;;;;;;11.63;1.60;;;;;;;;;;5074171;28;20489;-71
2024/01/14 05:52:37;;;;;;;14.95;1.85;;;;;;;;;;5075586;28;20041;-71
2024/01/14 05:55:03;;;;;;;10.60;1.55;;;;;;;;;;5073993;28;20124;-71
2024/01/14 05:57:30;;;;;;;13.68;2.00;;;;;;;;;;5074002;28;20131;-71
2024/01/14 05:59:56;;;;;;;10.32;1.75;;;;;;;;;;5073981;28;20048;-71
2024/01/14 06:02:22;;;;;;;11.00;1.40;;;;;;;;;;5073928;28;20084;-71
2024/01/14 06:04:48;;;;;;;17.85;1.88;;;;;;;;;;5073570;28;20045;-71
2024/01/14 06:07:14;;;;;;;13.15;1.90;;;;;;;;;;5075036;28;20401;-71
2024/01/14 06:09:40;;;;;;;11.25;1.58;;;;;;;;;;5075288;28;20069;-71
2024/01/14 06:12:06;;;;;;;12.15;1.77;;;;;;;;;;5073745;28;20033;-71
2024/01/14 06:14:32;;;;;;;12.85;2.22;;;;;;;;;;5075111;28;20122;-71
2024/01/14 06:16:58;;;;;;;16.45;1.63;;;;;;;;;;5073864;28;20084;-71
2024/01/14 06:19:24;;;;;;;14.75;1.80;;;;;;;;;;5073617;28;20037;-71
2024/01/14 06:21:50;;;;;;;14.90;2.53;;;;;;;;;;5075005;28;20041;-71
2024/01/14 06:24:16;;;;;;;13.45;1.88;;;;;;;;;;5074836;28;20079;-72
2024/01/14 06:26:42;;;;;;;10.45;1.42;;;;;;;;;;5074612;28;20033;-72
2024/01/14 06:29:08;;;;;;;11.75;1.73;;;;;;;;;;5073296;28;20040;-72
2024/01/14 06:31:34;;;;;;;9.80;1.40;;;;;;;;;;5073329;28;20036;-72
2024/01/14 06:34:00;;;;;;;10.52;1.48;;;;;;;;;;5075008;28;20047;-71
2024/01/14 06:36:26;;;;;;;10.30;1.27;;;;;;;;;;5074380;28;20452;-71
2024/01/14 06:38:52;;;;;;;12.45;1.38;;;;;;;;;;5073194;28;20102;-71
2024/01/14 06:41:19;;;;;;;12.70;1.48;;;;;;;;;;5074660;28;20036;-71
2024/01/14 06:43:45;;;;;;;11.10;1.60;;;;;;;;;;5074196;28;20409;-72
2024/01/14 06:46:11;;;;;;;9.60;1.50;;;;;;;;;;5074182;28;20049;-71
2024/01/14 06:48:37;;;;;;;8.95;1.33;;;;;;;;;;5072973;28;20044;-72
2024/01/14 06:51:03;;;;;;;15.63;1.77;;;;;;;;;;5074122;28;20040;-72
2024/01/14 06:53:29;;;;;;;12.95;2.05;;;;;;;;;;5072814;28;20093;-72
2024/01/14 06:55:55;;;;;;;11.65;1.40;;;;;;;;;;5072848;28;20048;-71
2024/01/14 06:58:21;;;;;;;9.98;1.60;;;;;;;;;;5073092;28;20049;-71
2024/01/14 07:00:47;;;;;;;17.02;1.77;;;;;;;;;;5074262;28;20510;-71
2024/01/14 07:03:14;;;;;;;10.02;2.28;;;;;;;;;;5072589;28;20045;-71
2024/01/14 07:05:40;;;;;;;14.90;1.65;;;;;;;;;;5072628;28;20490;-71
2024/01/14 07:08:06;;;;;;;10.35;1.50;;;;;;;;;;5074146;28;20032;-71
2024/01/14 07:10:32;;;;;;;11.45;1.25;;;;;;;;;;5072553;28;20046;-71
2024/01/14 07:12:58;;;;;;;10.98;1.90;;;;;;;;;;5072799;28;20036;-71
2024/01/14 07:15:24;;;;;;;10.90;1.40;;;;;;;;;;5072692;28;20071;-71
2024/01/14 07:17:50;;;;;;;10.65;1.98;;;;;;;;;;5072482;28;20492;-71
2024/01/14 07:20:16;;;;;;;9.27;1.25;;;;;;;;;;5073918;28;20036;-71
2024/01/14 07:22:43;;;;;;;10.35;1.60;;;;;;;;;;5072339;28;20062;-71
2024/01/14 07:25:10;;;;;;;14.98;2.20;;;;;;;;;;5073691;28;20083;-71
2024/01/14 07:27:36;;;;;;;10.35;1.40;;;;;;;;;;5073783;28;20405;-71
2024/01/14 07:30:02;;;;;;;9.00;1.52;;;;;;;;;;5072287;28;20040;-71
2024/01/14 07:32:28;;;;;;;12.85;1.88;;;;;;;;;;5072447;28;20103;-71
2024/01/14 07:34:54;;;;;;;13.63;1.50;;;;;;;;;;5072122;28;20611;-71
2024/01/14 07:37:20;;;;;;;15.88;1.88;;;;;;;;;;5073945;28;20044;-71
2024/01/14 07:39:47;;;;;;;15.25;2.03;;;;;;;;;;5071919;28;20040;-71
2024/01/14 07:42:13;;;;;;;9.88;1.20;;;;;;;;;;5073650;28;20071;-71
2024/01/14 07:44:39;;;;;;;12.15;1.85;;;;;;;;;;5073164;28;20090;-71
2024/01/14 07:47:05;;;;;;;13.98;1.55;;;;;;;;;;5072258;28;20041;-71
2024/01/14 07:49:31;;;;;;;15.07;1.50;;;;;;;;;;5073481;28;20079;-71
2024/01/14 07:51:57;;;;;;;13.20;1.73;;;;;;;;;;5073490;28;20048;-71
2024/01/14 07:54:23;;;;;;;10.65;1.23;;;;;;;;;;5073083;28;20548;-71
2024/01/14 07:56:49;;;;;;;11.25;1.38;;;;;;;;;;5073411;28;20075;-71
2024/01/14 07:59:15;;;;;;;14.07;1.55;;;;;;;;;;5073434;28;20044;-72
2024/01/14 08:01:41;;;;;;;10.82;1.42;;;;;;;;;;5071859;28;20098;-72
2024/01/14 08:04:07;;;;;;;11.82;1.63;;;;;;;;;;5071578;28;20044;-71
2024/01/14 08:06:33;;;;;;;11.93;1.15;;;;;;;;;;5073303;28;20036;-71
2024/01/14 08:08:59;;;;;;;7.65;1.23;;;;;;;;;;5071806;28;20036;-71
2024/01/14 08:11:25;;;;;;;15.68;1.98;;;;;;;;;;5073305;28;20111;-71
2024/01/14 08:13:51;;;;;;;8.45;1.15;;;;;;;;;;5072016;28;20242;-71
2024/01/14 08:16:17;;;;;;;8.57;1.10;;;;;;;;;;5071762;28;20044;-71
2024/01/14 08:18:43;;;;;;;7.32;0.98;;;;;;;;;;5071693;28;20080;-71
2024/01/14 08:21:10;;;;;;;11.48;1.10;;;;;;;;;;5073075;28;20114;-71
2024/01/14 08:23:37;;;;;;;9.63;1.10;;;;;;;;;;5071808;28;20045;-71
2024/01/14 08:26:03;;;;;;;12.13;1.42;;;;;;;;;;5071588;28;20111;-71
2024/01/14 08:28:30;;;;;;;7.63;0.90;;;;;;;;;;5073123;28;20054;-71
2024/01/14 08:30:56;;;;;;;8.35;1.10;;;;;;;;;;5073089;28;20040;-71
2024/01/14 08:33:22;;;;;;;10.70;1.38;;;;;;;;;;5071466;28;20044;-71
2024/01/14 08:35:48;;;;;;;8.00;1.17;;;;;;;;;;5071519;28;20047;-71
2024/01/14 08:38:14;;;;;;;8.80;1.05;;;;;;;;;;5071537;28;20041;-71
2024/01/14 08:40:40;;;;;;;11.63;1.08;;;;;;;;;;5073067;28;20044;-71
2024/01/14 08:43:06;;;;;;;7.22;1.00;;;;;;;;;;5071431;28;20477;-71
2024/01/14 08:45:32;;;;;;;10.45;1.30;;;;;;;;;;5071292;28;20075;-71
2024/01/14 08:47:58;;;;;;;10.18;1.33;;;;;;;;;;5072629;28;20079;-72
2024/01/14 08:50:24;;;;;;;6.38;1.05;;;;;;;;;;5071404;28;20040;-72
2024/01/14 08:52:50;;;;;;;6.53;1.38;;;;;;;;;;5074922;28;20086;-71
2024/01/14 08:55:16;;;;;;;7.45;1.13;;;;;;;;;;5076356;28;20040;-71
2024/01/14 08:57:42;;;;;;;10.93;1.23;;;;;;;;;;5076360;28;20048;-71
2024/01/14 09:00:08;;;;;;;7.72;1.73;;;;;;;;;;5076263;28;20486;-71
2024/01/14 09:02:35;;;;;;;8.23;1.20;;;;;;;;;;5076429;28;20115;-71
2024/01/14 09:05:01;;;;;;;11.00;1.50;;;;;;;;;;5076008;28;20109;-71
2024/01/14 09:07:27;;;;;;;6.63;1.02;;;;;;;;;;5075159;28;20451;-71
2024/01/14 09:09:53;;;;;;;12.55;1.45;;;;;;;;;;5076436;28;20044;-71
2024/01/14 09:12:19;;;;;;;12.18;1.42;;;;;;;;;;5074884;28;20118;-72
2024/01/14 09:14:45;;;;;;;11.50;1.27;;;;;;;;;;5075940;28;20086;-72
2024/01/14 09:17:11;;;;;;;7.43;1.80;;;;;;;;;;5074762;28;20052;-72
2024/01/14 09:19:38;;;;;;;7.78;0.93;;;;;;;;;;5074923;28;20044;-72
2024/01/14 09:22:04;;;;;;;7.20;1.10;;;;;;;;;;5077033;28;20036;-72
2024/01/14 09:24:30;;;;;;;9.80;1.70;;;;;;;;;;5074488;28;20055;-72
2024/01/14 09:26:56;;;;;;;7.75;1.77;;;;;;;;;;5074837;28;20119;-72
2024/01/14 09:29:22;;;;;;;13.40;1.30;;;;;;;;;;5074757;28;20474;-72
2024/01/14 09:31:48;;;;;;;13.18;1.23;;;;;;;;;;5075596;28;20456;-72
2024/01/14 09:34:14;;;;;;;8.55;1.25;;;;;;;;;;5074416;28;20048;-73
2024/01/14 09:36:41;;;;;;;6.47;1.10;;;;;;;;;;5074771;28;20032;-73
2024/01/14 09:39:13;;;;;;;9.20;1.02;;;;;;;;;;5074329;28;20456;-73
2024/01/14 09:41:54;;;;;;;7.57;1.00;;;;;;;;;;5075892;28;20064;-72
2024/01/14 09:44:20;;;;;;;6.88;1.25;;;;;;;;;;5074124;28;20036;-72
2024/01/14 09:46:47;;;;;;;10.65;1.02;;;;;;;;;;5075717;28;20032;-72
2024/01/14 09:49:14;;;;;;;6.50;0.90;;;;;;;;;;5074151;28;20409;-73
2024/01/14 09:51:41;;;;;;;7.95;1.65;;;;;;;;;;5074167;28;20119;-73
2024/01/14 09:54:07;;;;;;;10.25;1.10;;;;;;;;;;5075563;28;20029;-73
2024/01/14 09:56:34;;;;;;;3.75;0.80;;;;;;;;;;5074285;28;20124;-73
2024/01/14 09:59:02;;;;;;;5.03;0.55;;;;;;;;;;5074283;28;20036;-73
2024/01/14 10:01:31;;;;;;;5.13;1.00;;;;;;;;;;5057254;28;20036;-73
2024/01/14 10:04:01;;;;;;;7.15;0.65;;;;;;;;;;5074703;28;20040;-73
2024/01/14 10:06:27;;;;;;;5.43;0.90;;;;;;;;;;5075288;28;20036;-73
2024/01/14 10:08:53;;;;;;;5.43;1.20;;;;;;;;;;5073852;28;20037;-73
2024/01/14 10:11:19;;;;;;;7.50;0.90;;;;;;;;;;5057380;28;20490;-73
2024/01/14 10:13:45;;;;;;;3.95;0.70;;;;;;;;;;5075160;28;20041;-73
2024/01/14 10:16:12;;;;;;;13.07;1.08;;;;;;;;;;5074918;28;20528;-73
2024/01/14 10:18:38;;;;;;;6.65;0.77;;;;;;;;;;5073595;28;20584;-73
2024/01/14 10:21:05;;;;;;;7.10;0.90;;;;;;;;;;5073952;28;20127;-72
2024/01/14 10:23:33;;;;;;;4.63;0.98;;;;;;;;;;5075074;28;20044;-72
2024/01/14 10:26:03;;;;;;;8.38;0.90;;;;;;;;;;5075209;28;20048;-72
2024/01/14 10:28:35;;;;;;;8.05;1.48;;;;;;;;;;5075488;28;20040;-72
2024/01/14 10:31:03;;;;;;;6.32;0.90;;;;;;;;;;5074742;28;20582;-72
2024/01/14 10:33:35;;;;;;;5.25;0.88;;;;;;;;;;5074850;28;20040;-72
2024/01/14 10:36:02;;;;;;;3.10;0.60;;;;;;;;;;5073646;28;20055;-72
2024/01/14 10:38:28;;;;;;;5.55;0.80;;;;;;;;;;5073277;28;20406;-72
2024/01/14 10:40:54;;;;;;;6.03;0.82;;;;;;;;;;5074378;28;20498;-72
2024/01/14 10:43:24;;;;;;;3.83;0.68;;;;;;;;;;5073415;28;20101;-72
2024/01/14 10:45:50;;;;;;;3.42;0.60;;;;;;;;;;5073328;28;20124;-72
2024/01/14 10:48:20;;;;;;;2.70;0.45;;;;;;;;;;5072995;28;20120;-71
2024/01/14 10:50:47;;;;;;;3.42;0.60;;;;;;;;;;5072950;28;20428;-72
2024/01/14 10:53:22;;;;;;;4.95;0.63;;;;;;;;;;5074440;28;20119;-71
2024/01/14 10:55:49;;;;;;;4.07;0.75;;;;;;;;;;5072945;28;20049;-72
2024/01/14 10:58:28;;;;;;;7.43;0.93;;;;;;;;;;5072832;28;20045;-71
2024/01/14 11:00:58;;;;;;;5.78;1.17;;;;;;;;;;5072807;28;20405;-71
2024/01/14 11:03:25;;;;;;;5.80;1.05;;;;;;;;;;5074058;28;20127;-71
2024/01/14 11:05:52;;;;;;;5.32;0.98;;;;;;;;;;5074213;28;20109;-71
2024/01/14 11:45:22;;;;;;;8.95;0.90;;;5.30;99.90;;;;;;5091471;28;20373;-69
2024/01/14 11:47:50;;;;;;;9.77;1.58;;;5.10;99.90;;;;;;5089741;28;20036;-70
2024/01/14 11:50:18;;;;;;;8.10;0.93;;;5.10;99.90;;;;;;5089696;28;20094;-70
2024/01/14 11:52:52;;;;;;;7.68;0.82;;;5.10;99.90;;;;;;5090845;28;20032;-70
2024/01/14 11:55:25;;;;;;;4.78;1.05;;;5.10;99.90;;;;;;5090749;28;20041;-70
2024/01/14 11:57:52;;;;;;;6.10;0.90;;;5.20;99.90;;;;;;5090749;28;20059;-70
2024/01/14 12:00:23;;;;;;;8.27;1.30;;;5.30;99.90;;;;;;5090692;28;20472;-70
2024/01/14 12:03:03;;;;;;;5.35;1.08;;;5.30;99.90;;;;;;5089156;28;20036;-71
2024/01/14 12:05:28;;;;;;;6.90;1.08;;;5.30;99.90;;;;;;5089079;28;20040;-70
2024/01/14 12:07:54;;;;;;;9.15;0.82;;;5.30;99.90;;;;;;5089027;28;20037;-69
2024/01/14 12:10:20;;;;;;;4.75;0.88;;;5.30;99.90;;;;;;5089289;28;20036;-70
2024/01/14 12:12:46;;;;;;;5.60;0.85;;;5.40;99.90;;;;;;5090435;28;20111;-70
2024/01/14 12:15:14;;;;;;;5.15;0.95;;;5.40;99.90;;;;;;5088795;28;20079;-69
2024/01/14 12:17:39;;;;;;;4.38;0.50;;;5.40;99.90;;;;;;5090350;28;20040;-70
2024/01/14 12:20:08;;;;;;;5.15;0.65;;;5.30;99.90;;;;;;5090875;28;20040;-70
2024/01/14 12:22:35;;;;;;;6.95;0.93;;;5.20;99.90;;;;;;5090208;28;20165;-70
2024/01/14 12:25:01;;;;;;;4.60;0.80;;;5.20;99.90;;;;;;5088587;28;20101;-70
2024/01/14 12:27:27;;;;;;;4.78;0.75;;;5.10;99.90;;;;;;5088635;28;20040;-70
2024/01/14 12:29:54;;;;;;;6.68;0.90;;;5.10;99.90;;;;;;5088603;28;20043;-70
2024/01/14 12:32:20;;;;;;;3.17;1.02;;;5.20;99.90;;;;;;5090108;28;20036;-70
2024/01/14 12:34:48;;;;;;;7.18;1.48;;;5.20;99.90;;;;;;5090003;28;20511;-70
2024/01/14 12:37:14;;;;;;;5.15;1.30;;;5.30;99.90;;;;;;5089955;28;20036;-70
2024/01/14 12:39:40;;;;;;;5.35;1.30;;;5.50;99.90;;;;;;5089856;28;20036;-70
2024/01/14 12:42:06;;;;;;;5.22;1.73;;;5.70;99.90;;;;;;5089884;28;20082;-70
2024/01/14 12:44:46;;;;;;;5.53;2.28;;;5.70;99.90;;;;;;5088069;28;20417;-70
2024/01/14 12:47:12;;;;;;;8.00;2.80;;;5.60;99.90;;;;;;5089837;28;20212;-70
2024/01/14 12:49:38;;;;;;;7.55;2.90;;;5.50;99.90;;;;;;5089436;28;20488;-70
2024/01/14 12:52:06;;;;;;;7.32;3.20;;;5.50;99.90;;;;;;5088485;28;20138;-70
2024/01/14 12:54:32;;;;;;;8.05;3.00;;;5.40;99.90;;;;;;5087156;28;20036;-70
2024/01/14 12:56:59;;;;;;;9.82;3.20;;;5.40;99.90;;;;;;5074188;28;20036;-71
2024/01/14 12:59:25;;;;;;;8.20;3.40;;;5.30;99.90;;;;;;5076088;28;20081;-70
2024/01/14 13:01:50;;;;;;;8.30;2.95;;;5.20;99.90;;;;;;5076062;28;20115;-71
2024/01/14 13:04:16;;;;;;;6.70;2.85;;;5.20;99.90;;;;;;5075846;28;20115;-70
2024/01/14 13:06:42;;;;;;;11.20;3.35;;;5.20;99.90;;;;;;5074684;28;20032;-71
2024/01/14 13:09:08;;;;;;;9.30;3.40;;;5.20;99.90;;;;;;5074578;28;20512;-72
2024/01/14 13:11:33;;;;;;;10.13;4.53;;;5.10;99.90;;;;;;5076133;28;20037;-71
2024/01/14 13:13:59;;;;;;;12.38;4.78;;;5.10;99.90;;;;;;5075866;28;20033;-71
2024/01/14 13:16:25;;;;;;;9.05;5.00;;;5.20;99.90;;;;;;5075748;28;20043;-71
2024/01/14 13:18:51;;;;;;;11.35;5.55;;;5.20;99.90;;;;;;5074453;28;20044;-71
2024/01/14 13:21:16;;;;;;;12.45;5.13;;;5.20;99.90;;;;;;5075722;28;20489;-71
2024/01/14 13:23:42;;;;;;;13.40;5.13;;;5.10;99.90;;;;;;5075486;28;20424;-71
2024/01/14 13:26:08;;;;;;;13.57;5.40;;;5.10;99.90;;;;;;5074062;28;20037;-71
2024/01/14 13:28:33;;;;;;;14.07;6.03;;;5.10;99.90;;;;;;5074263;28;20036;-71
2024/01/14 13:30:59;;;;;;;13.20;5.35;;;5.00;99.90;;;;;;5057294;28;20037;-70
2024/01/14 13:33:25;;;;;;;12.60;6.03;;;4.90;99.90;;;;;;5075279;28;20043;-71
2024/01/14 13:35:51;;;;;;;13.70;5.25;;;4.90;99.90;;;;;;5074136;28;20040;-71
2024/01/14 13:38:16;;;;;;;10.77;5.63;;;4.90;99.90;;;;;;5073907;28;20508;-71
2024/01/14 13:40:42;;;;;;;14.85;5.10;;;4.90;99.90;;;;;;5073811;28;20109;-71
2024/01/14 13:43:08;;;;;;;12.90;4.82;;;4.90;99.90;;;;;;5073539;28;20071;-71
2024/01/14 13:45:33;;;;;;;9.00;3.88;;;4.90;99.90;;;;;;5073938;28;20048;-71
2024/01/14 13:47:59;;;;;;;10.55;3.88;;;4.90;99.90;;;;;;5073649;28;20037;-71
2024/01/14 13:50:25;;;;;;;9.02;3.05;;;5.00;99.90;;;;;;5073594;28;20508;-71
2024/01/14 13:52:50;;;;;;;10.43;2.72;;;5.00;99.90;;;;;;5073829;28;20037;-71
2024/01/14 13:55:16;;;;;;;8.07;2.60;;;5.00;99.90;;;;;;5073720;28;20493;-71
2024/01/14 13:57:42;;;;;;;7.45;2.60;;;5.10;99.90;;;;;;5073471;28;20409;-71
2024/01/14 14:00:08;;;;;;;11.45;2.13;;;5.00;99.90;;;;;;5074585;28;20496;-71
2024/01/14 14:02:35;;;;;;;7.78;1.60;;;5.10;99.90;;;;;;5074924;28;20088;-71
2024/01/14 14:05:01;;;;;;;6.28;1.60;;;5.10;99.90;;;;;;5073159;28;20051;-71
2024/01/14 14:07:29;;;;;;;7.05;1.65;;;5.20;99.90;;;;;;5073770;28;20032;-71
2024/01/14 14:09:55;;;;;;;11.27;2.10;;;5.20;99.90;;;;;;5074625;28;20032;-72
2024/01/14 14:12:21;;;;;;;12.02;1.63;;;5.30;99.90;;;;;;5073171;28;20093;-71
2024/01/14 14:14:47;;;;;;;10.25;1.98;;;5.30;99.90;;;;;;5073396;28;20078;-71
2024/01/14 14:17:13;;;;;;;8.73;1.50;;;5.30;99.90;;;;;;5074544;28;20474;-71
2024/01/14 14:19:38;;;;;;;6.18;1.30;;;5.30;99.90;;;;;;5074518;28;20043;-71
2024/01/14 14:22:04;;;;;;;8.30;1.63;;;5.30;99.90;;;;;;5056238;28;20413;-71
2024/01/14 14:24:33;;;;;;;4.97;1.20;;;5.20;99.90;;;;;;5072796;28;20080;-71
2024/01/14 14:26:59;;;;;;;7.40;1.33;;;5.20;99.90;;;;;;5074396;28;20478;-71
2024/01/14 14:29:24;;;;;;;6.35;0.90;;;5.10;99.90;;;;;;5074363;28;20044;-71
2024/01/14 14:31:50;;;;;;;6.53;1.20;;;5.10;99.90;;;;;;5074298;28;20037;-71
2024/01/14 14:34:17;;;;;;;9.60;1.35;;;5.00;99.90;;;;;;5074154;28;20165;-71
2024/01/14 14:36:43;;;;;;;6.03;1.50;;;5.00;99.90;;;;;;5074217;28;20048;-71
2024/01/14 14:39:09;;;;;;;5.65;1.10;;;5.00;99.90;;;;;;5072935;28;20416;-71
2024/01/14 14:41:35;;;;;;;5.75;1.23;;;4.90;99.90;;;;;;5072875;28;20037;-72